sensor_id;sensor_type;location;lat;lon;timestamp;P1;durP1;ratioP1;P2;durP2;ratioP2
25381;SDS011;16307;42.896;20.874;2022-12-08T00:02:11;60.22;;;29.75;;
25381;SDS011;16307;42.896;20.874;2022-12-08T00:04:58;57.78;;;29.38;;
25381;SDS011;16307;42.896;20.874;2022-12-08T00:08:03;53.38;;;27.67;;
25381;SDS011;16307;42.896;20.874;2022-12-08T00:11:12;55.85;;;28.08;;
25381;SDS011;16307;42.896;20.874;2022-12-08T00:13:58;60.22;;;31.95;;
25381;SDS011;16307;42.896;20.874;2022-12-08T00:16:44;56.13;;;29.20;;
25381;SDS011;16307;42.896;20.874;2022-12-08T00:19:30;60.20;;;29.52;;
25381;SDS011;16307;42.896;20.874;2022-12-08T00:22:16;59.80;;;31.77;;
25381;SDS011;16307;42.896;20.874;2022-12-08T00:25:03;59.42;;;30.75;;
25381;SDS011;16307;42.896;20.874;2022-12-08T00:27:50;57.65;;;29.73;;
25381;SDS011;16307;42.896;20.874;2022-12-08T00:30:38;60.08;;;30.60;;
25381;SDS011;16307;42.896;20.874;2022-12-08T00:33:26;53.08;;;28.10;;
25381;SDS011;16307;42.896;20.874;2022-12-08T00:36:13;58.38;;;29.25;;
25381;SDS011;16307;42.896;20.874;2022-12-08T00:38:59;58.53;;;27.60;;
25381;SDS011;16307;42.896;20.874;2022-12-08T00:41:45;54.63;;;27.35;;
25381;SDS011;16307;42.896;20.874;2022-12-08T00:44:50;52.38;;;27.55;;
25381;SDS011;16307;42.896;20.874;2022-12-08T00:47:36;52.00;;;26.48;;
25381;SDS011;16307;42.896;20.874;2022-12-08T00:50:22;53.45;;;27.17;;
25381;SDS011;16307;42.896;20.874;2022-12-08T00:53:09;54.88;;;27.00;;
25381;SDS011;16307;42.896;20.874;2022-12-08T00:55:54;53.45;;;27.33;;
25381;SDS011;16307;42.896;20.874;2022-12-08T00:58:40;55.83;;;27.35;;
25381;SDS011;16307;42.896;20.874;2022-12-08T01:01:26;66.38;;;29.88;;
25381;SDS011;16307;42.896;20.874;2022-12-08T01:04:13;53.00;;;27.33;;
25381;SDS011;16307;42.896;20.874;2022-12-08T01:07:00;52.33;;;26.73;;
25381;SDS011;16307;42.896;20.874;2022-12-08T01:09:46;56.30;;;26.48;;
25381;SDS011;16307;42.896;20.874;2022-12-08T01:12:32;55.78;;;26.73;;
25381;SDS011;16307;42.896;20.874;2022-12-08T01:15:18;51.95;;;27.23;;
25381;SDS011;16307;42.896;20.874;2022-12-08T01:18:04;52.55;;;27.45;;
25381;SDS011;16307;42.896;20.874;2022-12-08T01:20:50;50.38;;;26.63;;
25381;SDS011;16307;42.896;20.874;2022-12-08T01:23:37;50.20;;;26.83;;
25381;SDS011;16307;42.896;20.874;2022-12-08T01:26:22;51.75;;;25.73;;
25381;SDS011;16307;42.896;20.874;2022-12-08T01:29:09;49.45;;;27.65;;
25381;SDS011;16307;42.896;20.874;2022-12-08T01:31:56;51.08;;;26.75;;
25381;SDS011;16307;42.896;20.874;2022-12-08T01:34:42;56.53;;;26.15;;
25381;SDS011;16307;42.896;20.874;2022-12-08T01:37:28;52.17;;;27.25;;
25381;SDS011;16307;42.896;20.874;2022-12-08T01:40:14;55.28;;;26.80;;
25381;SDS011;16307;42.896;20.874;2022-12-08T01:43:00;55.20;;;28.52;;
25381;SDS011;16307;42.896;20.874;2022-12-08T01:45:46;58.03;;;28.27;;
25381;SDS011;16307;42.896;20.874;2022-12-08T01:48:32;53.38;;;27.27;;
25381;SDS011;16307;42.896;20.874;2022-12-08T01:51:18;55.13;;;26.90;;
25381;SDS011;16307;42.896;20.874;2022-12-08T01:54:05;51.50;;;27.20;;
25381;SDS011;16307;42.896;20.874;2022-12-08T01:56:55;55.45;;;28.20;;
25381;SDS011;16307;42.896;20.874;2022-12-08T02:03:02;54.88;;;26.95;;
25381;SDS011;16307;42.896;20.874;2022-12-08T02:05:50;57.00;;;27.73;;
25381;SDS011;16307;42.896;20.874;2022-12-08T02:08:38;53.13;;;28.20;;
25381;SDS011;16307;42.896;20.874;2022-12-08T02:11:25;52.22;;;27.45;;
25381;SDS011;16307;42.896;20.874;2022-12-08T02:14:11;51.95;;;27.27;;
25381;SDS011;16307;42.896;20.874;2022-12-08T02:23:04;53.63;;;26.80;;
25381;SDS011;16307;42.896;20.874;2022-12-08T02:27:03;56.40;;;27.40;;
25381;SDS011;16307;42.896;20.874;2022-12-08T02:36:04;50.92;;;27.38;;
25381;SDS011;16307;42.896;20.874;2022-12-08T02:45:07;49.78;;;27.40;;
25381;SDS011;16307;42.896;20.874;2022-12-08T02:48:05;59.22;;;30.95;;
25381;SDS011;16307;42.896;20.874;2022-12-08T02:50:51;61.55;;;30.50;;
25381;SDS011;16307;42.896;20.874;2022-12-08T02:53:37;55.85;;;29.98;;
25381;SDS011;16307;42.896;20.874;2022-12-08T03:08:07;61.53;;;30.98;;
25381;SDS011;16307;42.896;20.874;2022-12-08T03:11:21;60.88;;;31.52;;
25381;SDS011;16307;42.896;20.874;2022-12-08T03:14:14;71.18;;;38.03;;
25381;SDS011;16307;42.896;20.874;2022-12-08T03:17:02;61.45;;;35.15;;
25381;SDS011;16307;42.896;20.874;2022-12-08T03:19:49;63.72;;;32.83;;
25381;SDS011;16307;42.896;20.874;2022-12-08T03:22:35;59.75;;;29.90;;
25381;SDS011;16307;42.896;20.874;2022-12-08T03:25:24;58.58;;;31.65;;
25381;SDS011;16307;42.896;20.874;2022-12-08T03:28:10;54.72;;;28.25;;
25381;SDS011;16307;42.896;20.874;2022-12-08T03:30:58;55.85;;;28.33;;
25381;SDS011;16307;42.896;20.874;2022-12-08T03:33:48;53.17;;;28.13;;
25381;SDS011;16307;42.896;20.874;2022-12-08T03:36:36;53.47;;;27.60;;
25381;SDS011;16307;42.896;20.874;2022-12-08T03:39:23;52.50;;;27.35;;
25381;SDS011;16307;42.896;20.874;2022-12-08T03:42:09;54.03;;;27.45;;
25381;SDS011;16307;42.896;20.874;2022-12-08T03:44:54;52.08;;;28.55;;
25381;SDS011;16307;42.896;20.874;2022-12-08T03:47:40;65.28;;;32.05;;
25381;SDS011;16307;42.896;20.874;2022-12-08T03:50:26;59.50;;;30.33;;
25381;SDS011;16307;42.896;20.874;2022-12-08T03:53:12;53.45;;;29.80;;
25381;SDS011;16307;42.896;20.874;2022-12-08T03:55:58;60.30;;;30.52;;
25381;SDS011;16307;42.896;20.874;2022-12-08T03:58:44;54.55;;;30.92;;
25381;SDS011;16307;42.896;20.874;2022-12-08T04:01:30;55.55;;;29.17;;
25381;SDS011;16307;42.896;20.874;2022-12-08T04:04:16;59.55;;;30.60;;
25381;SDS011;16307;42.896;20.874;2022-12-08T04:07:03;64.90;;;33.28;;
25381;SDS011;16307;42.896;20.874;2022-12-08T04:09:49;66.25;;;33.17;;
25381;SDS011;16307;42.896;20.874;2022-12-08T04:12:35;70.43;;;32.95;;
25381;SDS011;16307;42.896;20.874;2022-12-08T04:15:21;65.43;;;31.98;;
25381;SDS011;16307;42.896;20.874;2022-12-08T04:18:07;60.88;;;33.22;;
25381;SDS011;16307;42.896;20.874;2022-12-08T04:20:52;61.83;;;31.65;;
25381;SDS011;16307;42.896;20.874;2022-12-08T04:23:38;63.85;;;30.92;;
25381;SDS011;16307;42.896;20.874;2022-12-08T04:26:25;62.83;;;31.75;;
25381;SDS011;16307;42.896;20.874;2022-12-08T04:29:10;66.38;;;34.00;;
25381;SDS011;16307;42.896;20.874;2022-12-08T04:31:56;69.50;;;34.08;;
25381;SDS011;16307;42.896;20.874;2022-12-08T04:34:42;59.72;;;32.92;;
25381;SDS011;16307;42.896;20.874;2022-12-08T04:37:28;67.00;;;34.42;;
25381;SDS011;16307;42.896;20.874;2022-12-08T04:40:14;64.60;;;32.92;;
25381;SDS011;16307;42.896;20.874;2022-12-08T04:43:00;63.28;;;31.40;;
25381;SDS011;16307;42.896;20.874;2022-12-08T04:45:46;60.92;;;32.58;;
25381;SDS011;16307;42.896;20.874;2022-12-08T04:48:33;67.55;;;33.38;;
25381;SDS011;16307;42.896;20.874;2022-12-08T04:51:20;65.15;;;33.55;;
25381;SDS011;16307;42.896;20.874;2022-12-08T04:54:06;62.47;;;33.13;;
25381;SDS011;16307;42.896;20.874;2022-12-08T04:56:51;56.17;;;30.75;;
25381;SDS011;16307;42.896;20.874;2022-12-08T04:59:37;61.85;;;30.25;;
25381;SDS011;16307;42.896;20.874;2022-12-08T05:02:24;64.22;;;32.83;;
25381;SDS011;16307;42.896;20.874;2022-12-08T05:05:10;57.45;;;29.52;;
25381;SDS011;16307;42.896;20.874;2022-12-08T05:07:56;52.78;;;28.33;;
25381;SDS011;16307;42.896;20.874;2022-12-08T05:10:42;50.35;;;27.10;;
25381;SDS011;16307;42.896;20.874;2022-12-08T05:13:28;57.30;;;28.13;;
25381;SDS011;16307;42.896;20.874;2022-12-08T05:16:14;55.30;;;27.05;;
25381;SDS011;16307;42.896;20.874;2022-12-08T05:19:01;56.58;;;28.20;;
25381;SDS011;16307;42.896;20.874;2022-12-08T05:21:47;57.70;;;27.63;;
25381;SDS011;16307;42.896;20.874;2022-12-08T05:24:33;59.17;;;28.75;;
25381;SDS011;16307;42.896;20.874;2022-12-08T05:27:19;60.13;;;29.77;;
25381;SDS011;16307;42.896;20.874;2022-12-08T05:30:05;61.92;;;28.45;;
25381;SDS011;16307;42.896;20.874;2022-12-08T05:32:51;57.03;;;27.73;;
25381;SDS011;16307;42.896;20.874;2022-12-08T05:35:37;56.58;;;28.35;;
25381;SDS011;16307;42.896;20.874;2022-12-08T05:38:23;58.35;;;29.55;;
25381;SDS011;16307;42.896;20.874;2022-12-08T05:41:14;54.30;;;26.90;;
25381;SDS011;16307;42.896;20.874;2022-12-08T05:44:01;53.57;;;26.67;;
25381;SDS011;16307;42.896;20.874;2022-12-08T05:46:47;58.22;;;30.33;;
25381;SDS011;16307;42.896;20.874;2022-12-08T05:49:33;62.47;;;28.98;;
25381;SDS011;16307;42.896;20.874;2022-12-08T05:52:19;57.45;;;29.15;;
25381;SDS011;16307;42.896;20.874;2022-12-08T05:55:05;62.45;;;29.88;;
25381;SDS011;16307;42.896;20.874;2022-12-08T05:57:52;52.88;;;27.13;;
25381;SDS011;16307;42.896;20.874;2022-12-08T06:00:38;54.95;;;28.92;;
25381;SDS011;16307;42.896;20.874;2022-12-08T06:03:24;69.35;;;32.22;;
25381;SDS011;16307;42.896;20.874;2022-12-08T06:06:10;60.60;;;31.02;;
25381;SDS011;16307;42.896;20.874;2022-12-08T06:08:56;63.17;;;30.67;;
25381;SDS011;16307;42.896;20.874;2022-12-08T06:11:42;57.20;;;31.27;;
25381;SDS011;16307;42.896;20.874;2022-12-08T06:14:28;57.70;;;28.67;;
25381;SDS011;16307;42.896;20.874;2022-12-08T06:17:14;60.90;;;28.30;;
25381;SDS011;16307;42.896;20.874;2022-12-08T06:20:00;59.40;;;29.67;;
25381;SDS011;16307;42.896;20.874;2022-12-08T06:22:47;62.92;;;29.00;;
25381;SDS011;16307;42.896;20.874;2022-12-08T06:25:32;58.67;;;27.80;;
25381;SDS011;16307;42.896;20.874;2022-12-08T06:28:18;57.22;;;26.55;;
25381;SDS011;16307;42.896;20.874;2022-12-08T06:31:12;55.50;;;28.10;;
25381;SDS011;16307;42.896;20.874;2022-12-08T06:33:59;53.83;;;27.92;;
25381;SDS011;16307;42.896;20.874;2022-12-08T06:36:45;56.85;;;30.23;;
25381;SDS011;16307;42.896;20.874;2022-12-08T06:39:31;60.55;;;28.85;;
25381;SDS011;16307;42.896;20.874;2022-12-08T06:42:17;61.30;;;28.00;;
25381;SDS011;16307;42.896;20.874;2022-12-08T06:45:21;58.10;;;28.92;;
25381;SDS011;16307;42.896;20.874;2022-12-08T06:48:07;56.03;;;27.67;;
25381;SDS011;16307;42.896;20.874;2022-12-08T06:50:53;59.65;;;30.38;;
25381;SDS011;16307;42.896;20.874;2022-12-08T06:53:39;53.50;;;26.90;;
25381;SDS011;16307;42.896;20.874;2022-12-08T06:56:26;50.22;;;26.40;;
25381;SDS011;16307;42.896;20.874;2022-12-08T06:59:12;45.78;;;24.83;;
25381;SDS011;16307;42.896;20.874;2022-12-08T07:01:59;49.97;;;24.42;;
25381;SDS011;16307;42.896;20.874;2022-12-08T07:04:45;48.28;;;24.02;;
25381;SDS011;16307;42.896;20.874;2022-12-08T07:07:30;48.45;;;24.70;;
25381;SDS011;16307;42.896;20.874;2022-12-08T07:10:16;53.15;;;26.65;;
25381;SDS011;16307;42.896;20.874;2022-12-08T07:13:02;44.33;;;22.08;;
25381;SDS011;16307;42.896;20.874;2022-12-08T07:15:49;49.17;;;24.70;;
25381;SDS011;16307;42.896;20.874;2022-12-08T07:18:35;46.72;;;23.05;;
25381;SDS011;16307;42.896;20.874;2022-12-08T07:21:22;51.33;;;25.95;;
25381;SDS011;16307;42.896;20.874;2022-12-08T07:24:07;51.75;;;28.60;;
25381;SDS011;16307;42.896;20.874;2022-12-08T07:26:54;60.35;;;29.92;;
25381;SDS011;16307;42.896;20.874;2022-12-08T07:29:40;58.30;;;31.95;;
25381;SDS011;16307;42.896;20.874;2022-12-08T07:32:25;56.80;;;31.70;;
25381;SDS011;16307;42.896;20.874;2022-12-08T07:35:11;60.00;;;32.03;;
25381;SDS011;16307;42.896;20.874;2022-12-08T07:37:58;59.33;;;32.10;;
25381;SDS011;16307;42.896;20.874;2022-12-08T07:40:44;56.53;;;29.50;;
25381;SDS011;16307;42.896;20.874;2022-12-08T07:43:30;66.15;;;30.25;;
25381;SDS011;16307;42.896;20.874;2022-12-08T07:46:17;58.22;;;27.95;;
25381;SDS011;16307;42.896;20.874;2022-12-08T07:49:04;58.38;;;27.83;;
25381;SDS011;16307;42.896;20.874;2022-12-08T07:51:50;56.22;;;29.58;;
25381;SDS011;16307;42.896;20.874;2022-12-08T07:54:36;56.25;;;29.25;;
25381;SDS011;16307;42.896;20.874;2022-12-08T07:57:22;52.38;;;28.67;;
25381;SDS011;16307;42.896;20.874;2022-12-08T08:00:08;64.68;;;32.70;;
25381;SDS011;16307;42.896;20.874;2022-12-08T08:02:58;60.97;;;32.35;;
25381;SDS011;16307;42.896;20.874;2022-12-08T08:05:44;63.63;;;32.35;;
25381;SDS011;16307;42.896;20.874;2022-12-08T08:08:32;67.80;;;30.73;;
25381;SDS011;16307;42.896;20.874;2022-12-08T08:11:18;59.72;;;31.10;;
25381;SDS011;16307;42.896;20.874;2022-12-08T08:14:06;54.72;;;29.70;;
25381;SDS011;16307;42.896;20.874;2022-12-08T08:16:52;58.78;;;29.42;;
25381;SDS011;16307;42.896;20.874;2022-12-08T08:19:38;55.72;;;28.50;;
25381;SDS011;16307;42.896;20.874;2022-12-08T08:22:25;59.88;;;31.13;;
25381;SDS011;16307;42.896;20.874;2022-12-08T08:25:12;58.03;;;30.38;;
25381;SDS011;16307;42.896;20.874;2022-12-08T08:27:58;57.78;;;28.63;;
25381;SDS011;16307;42.896;20.874;2022-12-08T08:30:45;56.72;;;28.17;;
25381;SDS011;16307;42.896;20.874;2022-12-08T08:33:31;49.08;;;26.23;;
25381;SDS011;16307;42.896;20.874;2022-12-08T08:36:18;52.55;;;27.05;;
25381;SDS011;16307;42.896;20.874;2022-12-08T08:39:04;54.00;;;27.90;;
25381;SDS011;16307;42.896;20.874;2022-12-08T08:41:50;60.28;;;30.05;;
25381;SDS011;16307;42.896;20.874;2022-12-08T08:44:36;53.20;;;25.85;;
25381;SDS011;16307;42.896;20.874;2022-12-08T08:47:23;51.45;;;26.98;;
25381;SDS011;16307;42.896;20.874;2022-12-08T08:50:11;51.53;;;27.10;;
25381;SDS011;16307;42.896;20.874;2022-12-08T08:52:57;51.03;;;27.33;;
25381;SDS011;16307;42.896;20.874;2022-12-08T08:55:43;59.42;;;28.05;;
25381;SDS011;16307;42.896;20.874;2022-12-08T08:58:29;66.22;;;30.55;;
25381;SDS011;16307;42.896;20.874;2022-12-08T09:01:16;50.60;;;27.08;;
25381;SDS011;16307;42.896;20.874;2022-12-08T09:04:05;61.40;;;29.35;;
25381;SDS011;16307;42.896;20.874;2022-12-08T09:06:52;70.35;;;32.75;;
25381;SDS011;16307;42.896;20.874;2022-12-08T09:09:38;71.72;;;32.80;;
25381;SDS011;16307;42.896;20.874;2022-12-08T09:12:24;91.47;;;45.80;;
25381;SDS011;16307;42.896;20.874;2022-12-08T09:15:10;78.10;;;37.45;;
25381;SDS011;16307;42.896;20.874;2022-12-08T09:17:56;77.20;;;37.85;;
25381;SDS011;16307;42.896;20.874;2022-12-08T09:20:42;59.75;;;28.85;;
25381;SDS011;16307;42.896;20.874;2022-12-08T09:23:28;58.08;;;28.13;;
25381;SDS011;16307;42.896;20.874;2022-12-08T09:26:20;55.57;;;30.77;;
25381;SDS011;16307;42.896;20.874;2022-12-08T09:29:07;62.05;;;31.92;;
25381;SDS011;16307;42.896;20.874;2022-12-08T09:31:53;84.15;;;39.15;;
25381;SDS011;16307;42.896;20.874;2022-12-08T09:34:40;66.78;;;35.05;;
25381;SDS011;16307;42.896;20.874;2022-12-08T09:37:26;62.22;;;32.35;;
25381;SDS011;16307;42.896;20.874;2022-12-08T09:40:14;60.85;;;32.00;;
25381;SDS011;16307;42.896;20.874;2022-12-08T09:43:07;55.95;;;27.63;;
25381;SDS011;16307;42.896;20.874;2022-12-08T09:46:02;62.85;;;32.72;;
25381;SDS011;16307;42.896;20.874;2022-12-08T09:48:53;55.53;;;28.60;;
25381;SDS011;16307;42.896;20.874;2022-12-08T09:51:40;46.38;;;26.33;;
25381;SDS011;16307;42.896;20.874;2022-12-08T09:54:33;49.75;;;26.67;;
25381;SDS011;16307;42.896;20.874;2022-12-08T09:57:19;55.10;;;27.88;;
25381;SDS011;16307;42.896;20.874;2022-12-08T10:00:09;51.78;;;27.00;;
25381;SDS011;16307;42.896;20.874;2022-12-08T10:02:57;50.72;;;26.08;;
25381;SDS011;16307;42.896;20.874;2022-12-08T10:05:48;45.53;;;24.45;;
25381;SDS011;16307;42.896;20.874;2022-12-08T10:08:45;44.33;;;22.42;;
25381;SDS011;16307;42.896;20.874;2022-12-08T10:11:42;42.45;;;22.23;;
25381;SDS011;16307;42.896;20.874;2022-12-08T10:17:31;48.97;;;23.55;;
25381;SDS011;16307;42.896;20.874;2022-12-08T10:20:24;49.83;;;26.33;;
25381;SDS011;16307;42.896;20.874;2022-12-08T10:26:12;47.03;;;25.80;;
25381;SDS011;16307;42.896;20.874;2022-12-08T10:29:00;56.88;;;28.95;;
25381;SDS011;16307;42.896;20.874;2022-12-08T10:31:47;60.53;;;27.40;;
25381;SDS011;16307;42.896;20.874;2022-12-08T10:34:33;61.13;;;27.77;;
25381;SDS011;16307;42.896;20.874;2022-12-08T10:37:19;50.78;;;26.30;;
25381;SDS011;16307;42.896;20.874;2022-12-08T10:40:15;47.45;;;23.83;;
25381;SDS011;16307;42.896;20.874;2022-12-08T10:43:02;54.10;;;27.13;;
25381;SDS011;16307;42.896;20.874;2022-12-08T10:45:50;53.33;;;28.10;;
25381;SDS011;16307;42.896;20.874;2022-12-08T10:48:40;44.15;;;21.60;;
25381;SDS011;16307;42.896;20.874;2022-12-08T10:54:31;42.03;;;21.15;;
25381;SDS011;16307;42.896;20.874;2022-12-08T10:57:20;43.40;;;21.52;;
25381;SDS011;16307;42.896;20.874;2022-12-08T11:00:10;45.28;;;21.42;;
25381;SDS011;16307;42.896;20.874;2022-12-08T11:03:00;42.92;;;21.20;;
25381;SDS011;16307;42.896;20.874;2022-12-08T11:05:48;45.40;;;22.08;;
25381;SDS011;16307;42.896;20.874;2022-12-08T11:08:34;43.10;;;21.55;;
25381;SDS011;16307;42.896;20.874;2022-12-08T11:12:00;37.40;;;20.33;;
25381;SDS011;16307;42.896;20.874;2022-12-08T11:15:00;40.25;;;22.38;;
25381;SDS011;16307;42.896;20.874;2022-12-08T11:17:47;37.47;;;21.30;;
25381;SDS011;16307;42.896;20.874;2022-12-08T11:20:45;45.47;;;23.25;;
25381;SDS011;16307;42.896;20.874;2022-12-08T11:23:31;45.42;;;22.58;;
25381;SDS011;16307;42.896;20.874;2022-12-08T11:26:28;44.08;;;23.20;;
25381;SDS011;16307;42.896;20.874;2022-12-08T11:29:17;43.90;;;22.30;;
25381;SDS011;16307;42.896;20.874;2022-12-08T11:32:05;46.30;;;24.05;;
25381;SDS011;16307;42.896;20.874;2022-12-08T11:34:59;43.92;;;23.33;;
25381;SDS011;16307;42.896;20.874;2022-12-08T11:37:47;46.60;;;23.05;;
25381;SDS011;16307;42.896;20.874;2022-12-08T11:40:34;46.75;;;24.92;;
25381;SDS011;16307;42.896;20.874;2022-12-08T11:43:26;49.65;;;26.38;;
25381;SDS011;16307;42.896;20.874;2022-12-08T11:46:16;53.22;;;26.23;;
25381;SDS011;16307;42.896;20.874;2022-12-08T11:49:09;44.97;;;24.45;;
25381;SDS011;16307;42.896;20.874;2022-12-08T11:52:18;44.70;;;23.53;;
25381;SDS011;16307;42.896;20.874;2022-12-08T11:58:17;44.50;;;24.02;;
25381;SDS011;16307;42.896;20.874;2022-12-08T12:01:04;48.22;;;26.08;;
25381;SDS011;16307;42.896;20.874;2022-12-08T12:18:38;45.05;;;24.50;;
25381;SDS011;16307;42.896;20.874;2022-12-08T12:21:33;41.20;;;23.05;;
25381;SDS011;16307;42.896;20.874;2022-12-08T12:24:24;49.42;;;25.33;;
25381;SDS011;16307;42.896;20.874;2022-12-08T12:27:23;50.85;;;22.67;;
25381;SDS011;16307;42.896;20.874;2022-12-08T12:30:18;39.00;;;19.55;;
25381;SDS011;16307;42.896;20.874;2022-12-08T12:33:07;36.45;;;18.92;;
25381;SDS011;16307;42.896;20.874;2022-12-08T12:35:56;37.45;;;17.92;;
25381;SDS011;16307;42.896;20.874;2022-12-08T12:41:51;30.88;;;15.90;;
25381;SDS011;16307;42.896;20.874;2022-12-08T12:44:40;31.15;;;16.25;;
25381;SDS011;16307;42.896;20.874;2022-12-08T12:47:44;34.15;;;18.35;;
25381;SDS011;16307;42.896;20.874;2022-12-08T12:56:44;34.40;;;16.67;;
25381;SDS011;16307;42.896;20.874;2022-12-08T12:59:34;34.50;;;17.15;;
25381;SDS011;16307;42.896;20.874;2022-12-08T13:05:32;33.15;;;16.90;;
25381;SDS011;16307;42.896;20.874;2022-12-08T13:08:21;31.42;;;16.58;;
25381;SDS011;16307;42.896;20.874;2022-12-08T13:11:09;41.65;;;21.88;;
25381;SDS011;16307;42.896;20.874;2022-12-08T13:13:56;42.33;;;21.05;;
25381;SDS011;16307;42.896;20.874;2022-12-08T13:16:45;34.90;;;20.25;;
25381;SDS011;16307;42.896;20.874;2022-12-08T13:19:39;32.28;;;15.95;;
25381;SDS011;16307;42.896;20.874;2022-12-08T13:28:25;32.88;;;15.93;;
25381;SDS011;16307;42.896;20.874;2022-12-08T13:34:22;40.25;;;19.40;;
25381;SDS011;16307;42.896;20.874;2022-12-08T13:40:04;46.67;;;21.05;;
25381;SDS011;16307;42.896;20.874;2022-12-08T13:46:03;35.28;;;17.98;;
25381;SDS011;16307;42.896;20.874;2022-12-08T13:49:12;36.60;;;17.77;;
25381;SDS011;16307;42.896;20.874;2022-12-08T13:52:30;35.42;;;19.05;;
25381;SDS011;16307;42.896;20.874;2022-12-08T13:55:45;40.42;;;18.65;;
25381;SDS011;16307;42.896;20.874;2022-12-08T14:02:15;45.05;;;23.10;;
25381;SDS011;16307;42.896;20.874;2022-12-08T14:05:05;53.20;;;26.70;;
25381;SDS011;16307;42.896;20.874;2022-12-08T14:08:17;42.10;;;21.70;;
25381;SDS011;16307;42.896;20.874;2022-12-08T14:11:46;35.60;;;19.33;;
25381;SDS011;16307;42.896;20.874;2022-12-08T14:14:40;35.30;;;19.48;;
25381;SDS011;16307;42.896;20.874;2022-12-08T14:17:50;41.33;;;22.40;;
25381;SDS011;16307;42.896;20.874;2022-12-08T14:20:37;41.75;;;22.42;;
25381;SDS011;16307;42.896;20.874;2022-12-08T14:23:43;42.05;;;21.85;;
25381;SDS011;16307;42.896;20.874;2022-12-08T14:26:30;44.30;;;21.60;;
25381;SDS011;16307;42.896;20.874;2022-12-08T14:32:34;44.22;;;23.42;;
25381;SDS011;16307;42.896;20.874;2022-12-08T14:35:24;39.00;;;20.55;;
25381;SDS011;16307;42.896;20.874;2022-12-08T14:38:12;40.63;;;19.92;;
25381;SDS011;16307;42.896;20.874;2022-12-08T14:43:57;37.85;;;17.02;;
25381;SDS011;16307;42.896;20.874;2022-12-08T14:50:04;36.10;;;18.65;;
25381;SDS011;16307;42.896;20.874;2022-12-08T14:53:27;36.65;;;17.08;;
25381;SDS011;16307;42.896;20.874;2022-12-08T14:56:24;33.05;;;18.92;;
25381;SDS011;16307;42.896;20.874;2022-12-08T14:59:18;47.70;;;23.98;;
25381;SDS011;16307;42.896;20.874;2022-12-08T15:02:18;41.40;;;22.38;;
25381;SDS011;16307;42.896;20.874;2022-12-08T15:05:09;46.20;;;23.80;;
25381;SDS011;16307;42.896;20.874;2022-12-08T15:07:59;39.15;;;19.23;;
25381;SDS011;16307;42.896;20.874;2022-12-08T15:11:10;40.67;;;21.73;;
25381;SDS011;16307;42.896;20.874;2022-12-08T15:14:28;37.97;;;19.55;;
25381;SDS011;16307;42.896;20.874;2022-12-08T15:17:28;33.38;;;18.45;;
25381;SDS011;16307;42.896;20.874;2022-12-08T15:23:27;35.90;;;18.30;;
25381;SDS011;16307;42.896;20.874;2022-12-08T15:26:20;40.45;;;19.00;;
25381;SDS011;16307;42.896;20.874;2022-12-08T15:29:09;37.67;;;20.00;;
25381;SDS011;16307;42.896;20.874;2022-12-08T15:31:57;35.33;;;20.35;;
25381;SDS011;16307;42.896;20.874;2022-12-08T15:34:44;38.42;;;18.95;;
25381;SDS011;16307;42.896;20.874;2022-12-08T15:37:31;37.25;;;19.48;;
25381;SDS011;16307;42.896;20.874;2022-12-08T15:40:18;33.60;;;17.48;;
25381;SDS011;16307;42.896;20.874;2022-12-08T15:43:07;27.75;;;14.73;;
25381;SDS011;16307;42.896;20.874;2022-12-08T15:45:55;26.23;;;14.77;;
25381;SDS011;16307;42.896;20.874;2022-12-08T15:48:44;32.42;;;16.52;;
25381;SDS011;16307;42.896;20.874;2022-12-08T15:51:31;33.22;;;15.77;;
25381;SDS011;16307;42.896;20.874;2022-12-08T15:54:21;40.17;;;18.05;;
25381;SDS011;16307;42.896;20.874;2022-12-08T15:57:14;41.20;;;20.90;;
25381;SDS011;16307;42.896;20.874;2022-12-08T16:00:26;48.47;;;24.38;;
25381;SDS011;16307;42.896;20.874;2022-12-08T16:03:34;54.03;;;24.73;;
25381;SDS011;16307;42.896;20.874;2022-12-08T16:06:45;67.05;;;31.35;;
25381;SDS011;16307;42.896;20.874;2022-12-08T16:09:52;66.28;;;31.75;;
25381;SDS011;16307;42.896;20.874;2022-12-08T16:12:39;65.95;;;32.25;;
25381;SDS011;16307;42.896;20.874;2022-12-08T16:16:06;44.38;;;23.92;;
25381;SDS011;16307;42.896;20.874;2022-12-08T16:18:52;38.90;;;21.92;;
25381;SDS011;16307;42.896;20.874;2022-12-08T16:21:38;41.80;;;23.33;;
25381;SDS011;16307;42.896;20.874;2022-12-08T16:24:44;48.08;;;24.95;;
25381;SDS011;16307;42.896;20.874;2022-12-08T16:27:31;49.85;;;26.40;;
25381;SDS011;16307;42.896;20.874;2022-12-08T16:30:38;62.95;;;32.70;;
25381;SDS011;16307;42.896;20.874;2022-12-08T16:33:24;72.35;;;37.08;;
25381;SDS011;16307;42.896;20.874;2022-12-08T16:36:10;67.05;;;35.00;;
25381;SDS011;16307;42.896;20.874;2022-12-08T16:38:56;64.30;;;33.60;;
25381;SDS011;16307;42.896;20.874;2022-12-08T16:41:42;70.40;;;36.47;;
25381;SDS011;16307;42.896;20.874;2022-12-08T16:44:46;72.78;;;36.58;;
25381;SDS011;16307;42.896;20.874;2022-12-08T16:47:33;68.72;;;38.40;;
25381;SDS011;16307;42.896;20.874;2022-12-08T16:53:10;57.53;;;32.33;;
25381;SDS011;16307;42.896;20.874;2022-12-08T16:55:57;58.40;;;33.28;;
25381;SDS011;16307;42.896;20.874;2022-12-08T16:58:43;74.05;;;39.75;;
25381;SDS011;16307;42.896;20.874;2022-12-08T17:01:30;85.88;;;45.65;;
25381;SDS011;16307;42.896;20.874;2022-12-08T17:04:16;79.93;;;43.00;;
25381;SDS011;16307;42.896;20.874;2022-12-08T17:07:18;82.88;;;44.75;;
25381;SDS011;16307;42.896;20.874;2022-12-08T17:10:04;91.90;;;45.17;;
25381;SDS011;16307;42.896;20.874;2022-12-08T17:12:51;75.15;;;40.08;;
25381;SDS011;16307;42.896;20.874;2022-12-08T17:15:38;75.57;;;41.80;;
25381;SDS011;16307;42.896;20.874;2022-12-08T17:18:24;76.35;;;42.50;;
25381;SDS011;16307;42.896;20.874;2022-12-08T17:21:11;79.70;;;44.53;;
25381;SDS011;16307;42.896;20.874;2022-12-08T17:23:59;82.28;;;45.20;;
25381;SDS011;16307;42.896;20.874;2022-12-08T17:26:45;80.85;;;43.50;;
25381;SDS011;16307;42.896;20.874;2022-12-08T17:29:32;82.32;;;43.00;;
25381;SDS011;16307;42.896;20.874;2022-12-08T17:32:18;75.60;;;42.30;;
25381;SDS011;16307;42.896;20.874;2022-12-08T17:35:05;77.75;;;41.50;;
25381;SDS011;16307;42.896;20.874;2022-12-08T17:37:52;66.82;;;39.00;;
25381;SDS011;16307;42.896;20.874;2022-12-08T17:40:37;71.82;;;40.83;;
25381;SDS011;16307;42.896;20.874;2022-12-08T17:43:23;77.55;;;44.67;;
25381;SDS011;16307;42.896;20.874;2022-12-08T17:46:09;71.15;;;41.78;;
25381;SDS011;16307;42.896;20.874;2022-12-08T17:49:08;78.75;;;42.47;;
25381;SDS011;16307;42.896;20.874;2022-12-08T17:52:14;82.35;;;45.08;;
25381;SDS011;16307;42.896;20.874;2022-12-08T17:55:00;78.30;;;43.22;;
25381;SDS011;16307;42.896;20.874;2022-12-08T17:57:46;82.30;;;46.08;;
25381;SDS011;16307;42.896;20.874;2022-12-08T18:00:32;85.75;;;50.33;;
25381;SDS011;16307;42.896;20.874;2022-12-08T18:03:19;83.78;;;49.95;;
25381;SDS011;16307;42.896;20.874;2022-12-08T18:06:06;71.32;;;37.97;;